sensor_id;sensor_type;location;lat;lon;timestamp;temperature;humidity
9437;DHT22;4757;59.334;18.034;2023-04-01T00:01:03;-2.70;99.90
9437;DHT22;4757;59.334;18.034;2023-04-01T00:03:30;-2.60;99.90
9437;DHT22;4757;59.334;18.034;2023-04-01T00:06:00;-2.70;99.90
9437;DHT22;4757;59.334;18.034;2023-04-01T00:08:28;-2.70;99.90
9437;DHT22;4757;59.334;18.034;2023-04-01T00:10:56;-2.80;99.90
9437;DHT22;4757;59.334;18.034;2023-04-01T00:13:25;-2.80;99.90
9437;DHT22;4757;59.334;18.034;2023-04-01T00:15:54;-2.80;99.90
9437;DHT22;4757;59.334;18.034;2023-04-01T00:18:23;-2.80;99.90
9437;DHT22;4757;59.334;18.034;2023-04-01T00:20:52;-2.90;99.90
9437;DHT22;4757;59.334;18.034;2023-04-01T00:23:20;-2.90;99.90
9437;DHT22;4757;59.334;18.034;2023-04-01T00:26:03;-2.90;99.90
9437;DHT22;4757;59.334;18.034;2023-04-01T00:28:31;-2.90;99.90
9437;DHT22;4757;59.334;18.034;2023-04-01T00:31:04;-2.80;99.90
9437;DHT22;4757;59.334;18.034;2023-04-01T00:33:32;-2.90;99.90
9437;DHT22;4757;59.334;18.034;2023-04-01T00:36:14;-2.80;99.90
9437;DHT22;4757;59.334;18.034;2023-04-01T00:38:43;-2.80;99.90
9437;DHT22;4757;59.334;18.034;2023-04-01T00:41:12;-2.80;99.90
9437;DHT22;4757;59.334;18.034;2023-04-01T00:43:48;-2.90;99.90
9437;DHT22;4757;59.334;18.034;2023-04-01T00:46:16;-2.90;99.90
9437;DHT22;4757;59.334;18.034;2023-04-01T00:49:02;-2.90;99.90
9437;DHT22;4757;59.334;18.034;2023-04-01T00:51:29;-2.90;99.90
9437;DHT22;4757;59.334;18.034;2023-04-01T00:53:59;-2.90;99.90
9437;DHT22;4757;59.334;18.034;2023-04-01T00:59:32;-3.00;99.90
9437;DHT22;4757;59.334;18.034;2023-04-01T01:02:05;-3.00;99.90
9437;DHT22;4757;59.334;18.034;2023-04-01T01:04:34;-3.00;99.90
9437;DHT22;4757;59.334;18.034;2023-04-01T01:10:18;-3.20;99.90
9437;DHT22;4757;59.334;18.034;2023-04-01T01:15:41;-3.20;99.90
9437;DHT22;4757;59.334;18.034;2023-04-01T01:18:19;-3.20;99.90
9437;DHT22;4757;59.334;18.034;2023-04-01T01:37:11;-3.40;99.90
9437;DHT22;4757;59.334;18.034;2023-04-01T01:39:51;-3.30;99.90
9437;DHT22;4757;59.334;18.034;2023-04-01T01:42:27;-3.30;99.90
9437;DHT22;4757;59.334;18.034;2023-04-01T01:45:20;-3.30;99.90
9437;DHT22;4757;59.334;18.034;2023-04-01T01:48:12;-3.40;99.90
9437;DHT22;4757;59.334;18.034;2023-04-01T01:50:54;-3.20;99.90
9437;DHT22;4757;59.334;18.034;2023-04-01T01:54:27;-3.20;99.90
9437;DHT22;4757;59.334;18.034;2023-04-01T01:57:28;-3.20;99.90
9437;DHT22;4757;59.334;18.034;2023-04-01T02:03:16;-3.30;99.90
9437;DHT22;4757;59.334;18.034;2023-04-01T02:05:57;-3.30;99.90
9437;DHT22;4757;59.334;18.034;2023-04-01T02:12:19;-3.20;99.90
9437;DHT22;4757;59.334;18.034;2023-04-01T02:15:11;-3.30;99.90
9437;DHT22;4757;59.334;18.034;2023-04-01T02:17:55;-3.30;99.90
9437;DHT22;4757;59.334;18.034;2023-04-01T02:20:24;-3.30;99.90
9437;DHT22;4757;59.334;18.034;2023-04-01T02:22:55;-3.20;99.90
9437;DHT22;4757;59.334;18.034;2023-04-01T02:25:35;-3.20;99.90
9437;DHT22;4757;59.334;18.034;2023-04-01T02:28:05;-3.20;99.90
9437;DHT22;4757;59.334;18.034;2023-04-01T02:30:35;-3.20;99.90
9437;DHT22;4757;59.334;18.034;2023-04-01T02:33:04;-3.20;99.90
9437;DHT22;4757;59.334;18.034;2023-04-01T02:35:35;-3.20;99.90
9437;DHT22;4757;59.334;18.034;2023-04-01T02:38:04;-3.20;99.90
9437;DHT22;4757;59.334;18.034;2023-04-01T02:41:01;-3.20;99.90
9437;DHT22;4757;59.334;18.034;2023-04-01T02:43:29;-3.20;99.90
9437;DHT22;4757;59.334;18.034;2023-04-01T02:45:56;-3.20;99.90
9437;DHT22;4757;59.334;18.034;2023-04-01T02:48:24;-3.20;99.90
9437;DHT22;4757;59.334;18.034;2023-04-01T02:50:52;-3.30;99.90
9437;DHT22;4757;59.334;18.034;2023-04-01T02:53:19;-3.20;99.90
9437;DHT22;4757;59.334;18.034;2023-04-01T02:55:46;-3.30;99.90
9437;DHT22;4757;59.334;18.034;2023-04-01T02:58:17;-3.30;99.90
9437;DHT22;4757;59.334;18.034;2023-04-01T03:00:44;-3.30;99.90
9437;DHT22;4757;59.334;18.034;2023-04-01T03:03:11;-3.30;99.90
9437;DHT22;4757;59.334;18.034;2023-04-01T03:05:40;-3.30;99.90
9437;DHT22;4757;59.334;18.034;2023-04-01T03:08:07;-3.30;99.90
9437;DHT22;4757;59.334;18.034;2023-04-01T03:10:34;-3.20;99.90
9437;DHT22;4757;59.334;18.034;2023-04-01T03:13:02;-3.20;99.90
9437;DHT22;4757;59.334;18.034;2023-04-01T03:15:29;-3.20;99.90
9437;DHT22;4757;59.334;18.034;2023-04-01T03:17:57;-3.30;99.90
9437;DHT22;4757;59.334;18.034;2023-04-01T03:20:24;-3.20;99.90
9437;DHT22;4757;59.334;18.034;2023-04-01T03:22:51;-3.10;99.90
9437;DHT22;4757;59.334;18.034;2023-04-01T03:25:18;-3.10;99.90
9437;DHT22;4757;59.334;18.034;2023-04-01T03:27:45;-3.20;99.90
9437;DHT22;4757;59.334;18.034;2023-04-01T03:30:13;-3.30;99.90
9437;DHT22;4757;59.334;18.034;2023-04-01T03:32:40;-3.20;99.90
9437;DHT22;4757;59.334;18.034;2023-04-01T03:35:07;-3.20;99.90
9437;DHT22;4757;59.334;18.034;2023-04-01T03:37:36;-3.20;99.90
9437;DHT22;4757;59.334;18.034;2023-04-01T03:40:04;-3.20;99.90
9437;DHT22;4757;59.334;18.034;2023-04-01T03:42:31;-3.20;99.90
9437;DHT22;4757;59.334;18.034;2023-04-01T03:44:59;-3.10;99.90
9437;DHT22;4757;59.334;18.034;2023-04-01T03:47:26;-3.20;99.90
9437;DHT22;4757;59.334;18.034;2023-04-01T03:49:53;-3.20;99.90
9437;DHT22;4757;59.334;18.034;2023-04-01T03:52:21;-3.20;99.90
9437;DHT22;4757;59.334;18.034;2023-04-01T03:54:48;-3.20;99.90
9437;DHT22;4757;59.334;18.034;2023-04-01T03:57:15;-3.20;99.90
9437;DHT22;4757;59.334;18.034;2023-04-01T03:59:42;-3.20;99.90
9437;DHT22;4757;59.334;18.034;2023-04-01T04:02:09;-3.20;99.90
9437;DHT22;4757;59.334;18.034;2023-04-01T04:04:37;-3.10;99.90
9437;DHT22;4757;59.334;18.034;2023-04-01T04:07:04;-3.20;99.90
9437;DHT22;4757;59.334;18.034;2023-04-01T04:09:31;-3.20;99.90
9437;DHT22;4757;59.334;18.034;2023-04-01T04:11:59;-3.20;99.90
9437;DHT22;4757;59.334;18.034;2023-04-01T04:14:27;-3.20;99.90
9437;DHT22;4757;59.334;18.034;2023-04-01T04:16:54;-3.20;99.90
9437;DHT22;4757;59.334;18.034;2023-04-01T04:19:21;-3.20;99.90
9437;DHT22;4757;59.334;18.034;2023-04-01T04:21:48;-3.20;99.90
9437;DHT22;4757;59.334;18.034;2023-04-01T04:24:15;-3.20;99.90
9437;DHT22;4757;59.334;18.034;2023-04-01T04:26:42;-3.30;99.90
9437;DHT22;4757;59.334;18.034;2023-04-01T04:29:09;-3.30;99.90
9437;DHT22;4757;59.334;18.034;2023-04-01T04:31:36;-3.30;99.90
9437;DHT22;4757;59.334;18.034;2023-04-01T04:34:04;-3.20;99.90
9437;DHT22;4757;59.334;18.034;2023-04-01T04:36:31;-3.30;99.90
9437;DHT22;4757;59.334;18.034;2023-04-01T04:38:58;-3.30;99.90
9437;DHT22;4757;59.334;18.034;2023-04-01T04:41:28;-3.30;99.90
9437;DHT22;4757;59.334;18.034;2023-04-01T04:43:59;-3.20;99.90
9437;DHT22;4757;59.334;18.034;2023-04-01T04:46:32;-3.10;99.90
9437;DHT22;4757;59.334;18.034;2023-04-01T04:49:07;-3.20;99.90
9437;DHT22;4757;59.334;18.034;2023-04-01T04:51:42;-3.10;99.90
9437;DHT22;4757;59.334;18.034;2023-04-01T04:54:29;-3.10;99.90
9437;DHT22;4757;59.334;18.034;2023-04-01T04:57:01;-3.10;99.90
9437;DHT22;4757;59.334;18.034;2023-04-01T04:59:37;-3.10;99.90
9437;DHT22;4757;59.334;18.034;2023-04-01T05:02:04;-3.10;99.90
9437;DHT22;4757;59.334;18.034;2023-04-01T05:04:35;-3.00;99.90
9437;DHT22;4757;59.334;18.034;2023-04-01T05:07:03;-2.90;99.90
9437;DHT22;4757;59.334;18.034;2023-04-01T05:09:30;-2.90;99.90
9437;DHT22;4757;59.334;18.034;2023-04-01T05:11:58;-2.80;99.90
9437;DHT22;4757;59.334;18.034;2023-04-01T05:14:26;-2.80;99.90
9437;DHT22;4757;59.334;18.034;2023-04-01T05:16:53;-2.70;99.90
9437;DHT22;4757;59.334;18.034;2023-04-01T05:19:21;-2.70;99.90
9437;DHT22;4757;59.334;18.034;2023-04-01T05:21:48;-2.70;99.90
9437;DHT22;4757;59.334;18.034;2023-04-01T05:24:15;-2.60;99.90
9437;DHT22;4757;59.334;18.034;2023-04-01T05:26:42;-2.60;99.90
9437;DHT22;4757;59.334;18.034;2023-04-01T05:29:10;-2.50;99.90
9437;DHT22;4757;59.334;18.034;2023-04-01T05:31:37;-2.50;99.90
9437;DHT22;4757;59.334;18.034;2023-04-01T05:34:04;-2.40;99.90
9437;DHT22;4757;59.334;18.034;2023-04-01T05:36:31;-2.30;99.90
9437;DHT22;4757;59.334;18.034;2023-04-01T05:39:01;-2.30;99.90
9437;DHT22;4757;59.334;18.034;2023-04-01T05:41:28;-2.20;99.90
9437;DHT22;4757;59.334;18.034;2023-04-01T05:43:55;-2.20;99.90
9437;DHT22;4757;59.334;18.034;2023-04-01T05:46:22;-2.10;99.90
9437;DHT22;4757;59.334;18.034;2023-04-01T05:48:49;-2.00;99.90
9437;DHT22;4757;59.334;18.034;2023-04-01T05:51:17;-2.00;99.90
9437;DHT22;4757;59.334;18.034;2023-04-01T05:53:44;-2.00;99.90
9437;DHT22;4757;59.334;18.034;2023-04-01T05:56:11;-1.90;99.90
9437;DHT22;4757;59.334;18.034;2023-04-01T05:58:39;-1.80;99.90
9437;DHT22;4757;59.334;18.034;2023-04-01T06:01:09;-1.80;99.90
9437;DHT22;4757;59.334;18.034;2023-04-01T06:03:42;-1.70;99.90
9437;DHT22;4757;59.334;18.034;2023-04-01T06:06:26;-1.60;99.90
9437;DHT22;4757;59.334;18.034;2023-04-01T06:08:56;-0.90;99.90
9437;DHT22;4757;59.334;18.034;2023-04-01T06:11:31;-0.30;99.90
9437;DHT22;4757;59.334;18.034;2023-04-01T06:17:07;0.40;99.90
9437;DHT22;4757;59.334;18.034;2023-04-01T06:25:29;1.40;99.90
9437;DHT22;4757;59.334;18.034;2023-04-01T06:30:57;1.40;99.90
9437;DHT22;4757;59.334;18.034;2023-04-01T06:47:37;1.30;99.90
9437;DHT22;4757;59.334;18.034;2023-04-01T06:50:47;1.70;99.90
9437;DHT22;4757;59.334;18.034;2023-04-01T06:56:18;2.00;99.90
9437;DHT22;4757;59.334;18.034;2023-04-01T06:59:08;2.40;99.90
9437;DHT22;4757;59.334;18.034;2023-04-01T07:01:46;2.60;99.90
9437;DHT22;4757;59.334;18.034;2023-04-01T07:04:37;2.10;99.90
9437;DHT22;4757;59.334;18.034;2023-04-01T07:07:48;2.10;99.90
9437;DHT22;4757;59.334;18.034;2023-04-01T07:10:47;2.30;99.90
9437;DHT22;4757;59.334;18.034;2023-04-01T07:13:28;1.80;99.90
9437;DHT22;4757;59.334;18.034;2023-04-01T07:16:11;2.40;99.90
9437;DHT22;4757;59.334;18.034;2023-04-01T07:18:47;2.60;99.90
9437;DHT22;4757;59.334;18.034;2023-04-01T07:21:35;3.00;99.90
9437;DHT22;4757;59.334;18.034;2023-04-01T07:24:12;2.60;99.90
9437;DHT22;4757;59.334;18.034;2023-04-01T07:26:42;1.80;99.90
9437;DHT22;4757;59.334;18.034;2023-04-01T07:29:12;2.00;99.90
9437;DHT22;4757;59.334;18.034;2023-04-01T07:34:26;2.70;99.90
9437;DHT22;4757;59.334;18.034;2023-04-01T07:37:00;2.60;99.90
9437;DHT22;4757;59.334;18.034;2023-04-01T07:39:36;2.10;99.90
9437;DHT22;4757;59.334;18.034;2023-04-01T07:42:20;2.30;99.90
9437;DHT22;4757;59.334;18.034;2023-04-01T07:50:34;2.90;99.90
9437;DHT22;4757;59.334;18.034;2023-04-01T07:56:12;2.70;99.90
9437;DHT22;4757;59.334;18.034;2023-04-01T07:58:58;2.60;99.90
9437;DHT22;4757;59.334;18.034;2023-04-01T08:04:37;2.80;99.90
9437;DHT22;4757;59.334;18.034;2023-04-01T08:09:57;2.50;99.90
9437;DHT22;4757;59.334;18.034;2023-04-01T08:20:53;3.30;99.90
9437;DHT22;4757;59.334;18.034;2023-04-01T08:23:28;3.10;99.90
9437;DHT22;4757;59.334;18.034;2023-04-01T08:29:00;3.20;99.90
9437;DHT22;4757;59.334;18.034;2023-04-01T08:31:31;3.70;99.90
9437;DHT22;4757;59.334;18.034;2023-04-01T08:34:03;3.90;99.90
9437;DHT22;4757;59.334;18.034;2023-04-01T08:36:37;3.80;99.90
9437;DHT22;4757;59.334;18.034;2023-04-01T08:39:13;3.60;99.90
9437;DHT22;4757;59.334;18.034;2023-04-01T08:55:51;3.50;99.90
9437;DHT22;4757;59.334;18.034;2023-04-01T09:10:11;4.30;99.90
9437;DHT22;4757;59.334;18.034;2023-04-01T09:34:54;5.00;99.90
9437;DHT22;4757;59.334;18.034;2023-04-01T09:43:15;4.80;99.90
9437;DHT22;4757;59.334;18.034;2023-04-01T09:49:16;4.50;99.90
9437;DHT22;4757;59.334;18.034;2023-04-01T10:09:42;4.90;99.90
9437;DHT22;4757;59.334;18.034;2023-04-01T10:29:47;4.70;99.90
9437;DHT22;4757;59.334;18.034;2023-04-01T11:01:27;5.20;99.90
9437;DHT22;4757;59.334;18.034;2023-04-01T11:15:55;5.40;99.90
9437;DHT22;4757;59.334;18.034;2023-04-01T11:30:26;5.60;99.90
9437;DHT22;4757;59.334;18.034;2023-04-01T11:33:03;5.60;99.90
9437;DHT22;4757;59.334;18.034;2023-04-01T11:38:26;5.70;99.90
9437;DHT22;4757;59.334;18.034;2023-04-01T11:46:16;5.40;99.90
9437;DHT22;4757;59.334;18.034;2023-04-01T12:02:48;5.40;99.90
9437;DHT22;4757;59.334;18.034;2023-04-01T12:05:38;5.50;99.90
9437;DHT22;4757;59.334;18.034;2023-04-01T12:08:37;5.70;99.90
9437;DHT22;4757;59.334;18.034;2023-04-01T12:16:50;5.40;99.90
9437;DHT22;4757;59.334;18.034;2023-04-01T12:19:48;5.60;99.90
9437;DHT22;4757;59.334;18.034;2023-04-01T12:22:30;5.90;99.90
9437;DHT22;4757;59.334;18.034;2023-04-01T12:25:17;5.90;99.90
9437;DHT22;4757;59.334;18.034;2023-04-01T12:39:49;6.60;99.90
9437;DHT22;4757;59.334;18.034;2023-04-01T12:42:41;6.40;99.90
9437;DHT22;4757;59.334;18.034;2023-04-01T12:48:18;6.40;99.90
9437;DHT22;4757;59.334;18.034;2023-04-01T13:04:50;7.00;99.90
9437;DHT22;4757;59.334;18.034;2023-04-01T13:10:37;6.60;99.90
9437;DHT22;4757;59.334;18.034;2023-04-01T13:16:31;6.30;99.90
9437;DHT22;4757;59.334;18.034;2023-04-01T13:22:20;6.70;99.90
9437;DHT22;4757;59.334;18.034;2023-04-01T13:24:51;6.20;99.90
9437;DHT22;4757;59.334;18.034;2023-04-01T13:43:39;6.30;99.90
9437;DHT22;4757;59.334;18.034;2023-04-01T13:55:19;5.00;99.90
9437;DHT22;4757;59.334;18.034;2023-04-01T14:09:25;4.90;99.90
9437;DHT22;4757;59.334;18.034;2023-04-01T14:12:19;4.90;99.90
9437;DHT22;4757;59.334;18.034;2023-04-01T14:18:16;4.90;99.90
9437;DHT22;4757;59.334;18.034;2023-04-01T14:32:06;5.00;99.90
9437;DHT22;4757;59.334;18.034;2023-04-01T14:34:40;4.70;99.90
9437;DHT22;4757;59.334;18.034;2023-04-01T14:40:28;4.70;99.90
9437;DHT22;4757;59.334;18.034;2023-04-01T14:56:42;4.30;99.90
9437;DHT22;4757;59.334;18.034;2023-04-01T14:59:30;4.30;99.90
9437;DHT22;4757;59.334;18.034;2023-04-01T15:16:33;4.10;99.90
9437;DHT22;4757;59.334;18.034;2023-04-01T15:19:23;4.20;99.90
9437;DHT22;4757;59.334;18.034;2023-04-01T15:27:40;4.30;99.90
9437;DHT22;4757;59.334;18.034;2023-04-01T15:30:21;4.20;99.90
9437;DHT22;4757;59.334;18.034;2023-04-01T15:55:36;3.60;99.90
9437;DHT22;4757;59.334;18.034;2023-04-01T15:58:32;3.60;99.90
9437;DHT22;4757;59.334;18.034;2023-04-01T16:09:53;3.70;99.90
9437;DHT22;4757;59.334;18.034;2023-04-01T16:13:04;3.60;99.90
9437;DHT22;4757;59.334;18.034;2023-04-01T16:15:52;3.50;99.90
9437;DHT22;4757;59.334;18.034;2023-04-01T16:19:07;3.40;99.90
9437;DHT22;4757;59.334;18.034;2023-04-01T16:24:15;3.40;99.90
9437;DHT22;4757;59.334;18.034;2023-04-01T16:26:57;3.30;99.90
9437;DHT22;4757;59.334;18.034;2023-04-01T16:37:39;3.20;99.90
9437;DHT22;4757;59.334;18.034;2023-04-01T16:42:51;3.20;99.90
9437;DHT22;4757;59.334;18.034;2023-04-01T16:45:28;3.10;99.90
9437;DHT22;4757;59.334;18.034;2023-04-01T16:48:52;3.10;99.90
9437;DHT22;4757;59.334;18.034;2023-04-01T16:51:13;3.00;99.90
9437;DHT22;4757;59.334;18.034;2023-04-01T16:54:35;3.00;99.90
9437;DHT22;4757;59.334;18.034;2023-04-01T16:56:45;3.00;99.90
9437;DHT22;4757;59.334;18.034;2023-04-01T16:59:54;2.90;99.90
9437;DHT22;4757;59.334;18.034;2023-04-01T17:02:47;2.80;99.90
9437;DHT22;4757;59.334;18.034;2023-04-01T17:05:17;2.80;99.90
9437;DHT22;4757;59.334;18.034;2023-04-01T17:08:14;2.70;99.90
9437;DHT22;4757;59.334;18.034;2023-04-01T17:27:34;2.30;99.90
9437;DHT22;4757;59.334;18.034;2023-04-01T17:30:12;2.30;99.90
9437;DHT22;4757;59.334;18.034;2023-04-01T17:39:14;2.10;99.90
9437;DHT22;4757;59.334;18.034;2023-04-01T17:44:38;2.10;99.90
9437;DHT22;4757;59.334;18.034;2023-04-01T17:47:35;2.10;99.90
9437;DHT22;4757;59.334;18.034;2023-04-01T17:53:02;2.00;99.90
9437;DHT22;4757;59.334;18.034;2023-04-01T17:58:29;1.90;99.90
9437;DHT22;4757;59.334;18.034;2023-04-01T18:06:12;1.80;99.90
9437;DHT22;4757;59.334;18.034;2023-04-01T18:14:49;1.50;99.90
9437;DHT22;4757;59.334;18.034;2023-04-01T18:33:49;1.00;99.90
9437;DHT22;4757;59.334;18.034;2023-04-01T18:42:17;0.90;99.90
9437;DHT22;4757;59.334;18.034;2023-04-01T18:52:56;0.80;99.90
9437;DHT22;4757;59.334;18.034;2023-04-01T19:00:48;0.70;99.90
9437;DHT22;4757;59.334;18.034;2023-04-01T19:03:25;0.70;99.90
9437;DHT22;4757;59.334;18.034;2023-04-01T19:06:00;0.60;99.90
9437;DHT22;4757;59.334;18.034;2023-04-01T19:08:35;0.60;99.90
9437;DHT22;4757;59.334;18.034;2023-04-01T19:19:56;0.60;99.90
9437;DHT22;4757;59.334;18.034;2023-04-01T19:25:32;0.40;99.90
9437;DHT22;4757;59.334;18.034;2023-04-01T19:36:39;0.40;99.90
9437;DHT22;4757;59.334;18.034;2023-04-01T19:47:44;0.20;99.90
9437;DHT22;4757;59.334;18.034;2023-04-01T19:52:59;0.10;99.90
9437;DHT22;4757;59.334;18.034;2023-04-01T19:55:34;0.10;99.90
9437;DHT22;4757;59.334;18.034;2023-04-01T19:58:11;0.20;99.90
9437;DHT22;4757;59.334;18.034;2023-04-01T20:00:47;0.10;99.90
9437;DHT22;4757;59.334;18.034;2023-04-01T20:03:22;0.10;99.90
9437;DHT22;4757;59.334;18.034;2023-04-01T20:05:59;-0.10;99.90
9437;DHT22;4757;59.334;18.034;2023-04-01T20:14:21;-0.20;99.90
9437;DHT22;4757;59.334;18.034;2023-04-01T20:17:11;-0.20;99.90
9437;DHT22;4757;59.334;18.034;2023-04-01T20:25:24;-0.20;99.90
9437;DHT22;4757;59.334;18.034;2023-04-01T20:44:46;-0.40;99.90
9437;DHT22;4757;59.334;18.034;2023-04-01T20:52:58;-0.50;99.90
9437;DHT22;4757;59.334;18.034;2023-04-01T20:55:54;-0.50;99.90
9437;DHT22;4757;59.334;18.034;2023-04-01T21:01:41;-0.40;99.90
9437;DHT22;4757;59.334;18.034;2023-04-01T21:04:30;-0.50;99.90
9437;DHT22;4757;59.334;18.034;2023-04-01T21:07:13;-0.60;99.90
9437;DHT22;4757;59.334;18.034;2023-04-01T21:10:08;-0.60;99.90
9437;DHT22;4757;59.334;18.034;2023-04-01T21:16:23;-0.60;99.90
9437;DHT22;4757;59.334;18.034;2023-04-01T21:27:03;-0.60;99.90
9437;DHT22;4757;59.334;18.034;2023-04-01T21:38:36;-0.60;99.90
9437;DHT22;4757;59.334;18.034;2023-04-01T21:48:37;-0.70;99.90
9437;DHT22;4757;59.334;18.034;2023-04-01T21:52:03;-0.70;99.90
9437;DHT22;4757;59.334;18.034;2023-04-01T22:00:04;-0.70;99.90
9437;DHT22;4757;59.334;18.034;2023-04-01T22:05:25;-0.80;99.90
9437;DHT22;4757;59.334;18.034;2023-04-01T22:11:11;-0.80;99.90
9437;DHT22;4757;59.334;18.034;2023-04-01T22:13:51;-0.70;99.90
9437;DHT22;4757;59.334;18.034;2023-04-01T22:22:29;-0.70;99.90
9437;DHT22;4757;59.334;18.034;2023-04-01T22:35:50;-0.70;99.90
9437;DHT22;4757;59.334;18.034;2023-04-01T22:43:58;-0.70;99.90
9437;DHT22;4757;59.334;18.034;2023-04-01T22:46:51;-0.70;99.90
9437;DHT22;4757;59.334;18.034;2023-04-01T22:49:26;-0.70;99.90
9437;DHT22;4757;59.334;18.034;2023-04-01T22:54:58;-0.80;99.90
9437;DHT22;4757;59.334;18.034;2023-04-01T23:00:14;-0.90;99.90
9437;DHT22;4757;59.334;18.034;2023-04-01T23:03:00;-0.90;99.90
9437;DHT22;4757;59.334;18.034;2023-04-01T23:05:29;-0.90;99.90
9437;DHT22;4757;59.334;18.034;2023-04-01T23:22:21;-0.90;99.90
9437;DHT22;4757;59.334;18.034;2023-04-01T23:27:36;-1.00;99.90
9437;DHT22;4757;59.334;18.034;2023-04-01T23:38:37;-1.00;99.90
9437;DHT22;4757;59.334;18.034;2023-04-01T23:41:07;-1.00;99.90
9437;DHT22;4757;59.334;18.034;2023-04-01T23:43:41;-1.00;99.90
9437;DHT22;4757;59.334;18.034;2023-04-01T23:46:09;-1.00;99.90
9437;DHT22;4757;59.334;18.034;2023-04-01T23:48:41;-1.00;99.90
9437;DHT22;4757;59.334;18.034;2023-04-01T23:51:25;-1.00;99.90
9437;DHT22;4757;59.334;18.034;2023-04-01T23:54:03;-1.00;99.90
9437;DHT22;4757;59.334;18.034;2023-04-01T23:56:50;-1.00;99.90
9437;DHT22;4757;59.334;18.034;2023-04-01T23:59:30;-1.00;99.90
